sensor_id;sensor_type;location;lat;lon;timestamp;P1;durP1;ratioP1;P2;durP2;ratioP2
39848;SDS011;25518;47.878;15.914;2023-08-24T00:02:04;7.07;;;3.40;;
39848;SDS011;25518;47.878;15.914;2023-08-24T00:04:53;7.63;;;3.25;;
39848;SDS011;25518;47.878;15.914;2023-08-24T00:07:45;6.73;;;3.60;;
39848;SDS011;25518;47.878;15.914;2023-08-24T00:10:36;5.72;;;3.30;;
39848;SDS011;25518;47.878;15.914;2023-08-24T00:13:26;6.90;;;3.67;;
39848;SDS011;25518;47.878;15.914;2023-08-24T00:16:16;4.55;;;3.15;;
39848;SDS011;25518;47.878;15.914;2023-08-24T00:19:08;5.20;;;3.58;;
39848;SDS011;25518;47.878;15.914;2023-08-24T00:21:57;7.60;;;3.65;;
39848;SDS011;25518;47.878;15.914;2023-08-24T00:24:46;7.03;;;3.33;;
39848;SDS011;25518;47.878;15.914;2023-08-24T00:27:36;6.53;;;3.80;;
39848;SDS011;25518;47.878;15.914;2023-08-24T00:30:26;5.33;;;3.20;;
39848;SDS011;25518;47.878;15.914;2023-08-24T00:33:15;5.38;;;3.42;;
39848;SDS011;25518;47.878;15.914;2023-08-24T00:36:05;5.93;;;3.70;;
39848;SDS011;25518;47.878;15.914;2023-08-24T00:38:56;5.85;;;3.70;;
39848;SDS011;25518;47.878;15.914;2023-08-24T00:41:45;5.82;;;3.65;;
39848;SDS011;25518;47.878;15.914;2023-08-24T00:44:35;5.43;;;3.67;;
39848;SDS011;25518;47.878;15.914;2023-08-24T00:47:25;6.25;;;3.95;;
39848;SDS011;25518;47.878;15.914;2023-08-24T00:50:16;4.88;;;3.33;;
39848;SDS011;25518;47.878;15.914;2023-08-24T00:53:06;6.07;;;3.63;;
39848;SDS011;25518;47.878;15.914;2023-08-24T00:55:56;5.90;;;3.97;;
39848;SDS011;25518;47.878;15.914;2023-08-24T00:58:47;7.50;;;4.00;;
39848;SDS011;25518;47.878;15.914;2023-08-24T01:01:36;7.13;;;4.10;;
39848;SDS011;25518;47.878;15.914;2023-08-24T01:04:28;6.35;;;3.80;;
39848;SDS011;25518;47.878;15.914;2023-08-24T01:07:18;6.93;;;3.85;;
39848;SDS011;25518;47.878;15.914;2023-08-24T01:10:08;5.70;;;3.63;;
39848;SDS011;25518;47.878;15.914;2023-08-24T01:13:02;5.82;;;3.63;;
39848;SDS011;25518;47.878;15.914;2023-08-24T01:16:02;5.43;;;3.35;;
39848;SDS011;25518;47.878;15.914;2023-08-24T01:18:58;5.85;;;3.08;;
39848;SDS011;25518;47.878;15.914;2023-08-24T01:21:48;5.78;;;3.60;;
39848;SDS011;25518;47.878;15.914;2023-08-24T01:24:40;7.15;;;3.28;;
39848;SDS011;25518;47.878;15.914;2023-08-24T01:27:36;5.75;;;3.90;;
39848;SDS011;25518;47.878;15.914;2023-08-24T01:30:26;6.13;;;3.67;;
39848;SDS011;25518;47.878;15.914;2023-08-24T01:33:17;5.85;;;3.58;;
39848;SDS011;25518;47.878;15.914;2023-08-24T01:36:08;5.57;;;3.97;;
39848;SDS011;25518;47.878;15.914;2023-08-24T01:39:03;7.47;;;3.93;;
39848;SDS011;25518;47.878;15.914;2023-08-24T01:42:02;5.85;;;3.90;;
39848;SDS011;25518;47.878;15.914;2023-08-24T01:44:56;7.50;;;3.97;;
39848;SDS011;25518;47.878;15.914;2023-08-24T01:47:51;5.45;;;3.50;;
39848;SDS011;25518;47.878;15.914;2023-08-24T01:50:43;5.77;;;3.63;;
39848;SDS011;25518;47.878;15.914;2023-08-24T01:53:35;7.27;;;3.70;;
39848;SDS011;25518;47.878;15.914;2023-08-24T01:56:26;4.95;;;3.30;;
39848;SDS011;25518;47.878;15.914;2023-08-24T01:59:15;5.95;;;3.28;;
39848;SDS011;25518;47.878;15.914;2023-08-24T02:02:05;5.83;;;3.20;;
39848;SDS011;25518;47.878;15.914;2023-08-24T02:04:55;6.32;;;3.83;;
39848;SDS011;25518;47.878;15.914;2023-08-24T02:07:47;6.25;;;3.65;;
39848;SDS011;25518;47.878;15.914;2023-08-24T02:10:37;5.78;;;3.38;;
39848;SDS011;25518;47.878;15.914;2023-08-24T02:13:27;8.30;;;4.00;;
39848;SDS011;25518;47.878;15.914;2023-08-24T02:16:17;5.30;;;3.50;;
39848;SDS011;25518;47.878;15.914;2023-08-24T02:19:06;5.95;;;3.70;;
39848;SDS011;25518;47.878;15.914;2023-08-24T02:21:56;5.88;;;3.40;;
39848;SDS011;25518;47.878;15.914;2023-08-24T02:24:46;4.75;;;3.30;;
39848;SDS011;25518;47.878;15.914;2023-08-24T02:27:35;5.72;;;3.60;;
39848;SDS011;25518;47.878;15.914;2023-08-24T02:30:25;7.38;;;3.75;;
39848;SDS011;25518;47.878;15.914;2023-08-24T02:33:14;5.50;;;3.58;;
39848;SDS011;25518;47.878;15.914;2023-08-24T02:36:04;5.10;;;3.30;;
39848;SDS011;25518;47.878;15.914;2023-08-24T02:38:54;4.60;;;3.22;;
39848;SDS011;25518;47.878;15.914;2023-08-24T02:41:43;6.82;;;4.22;;
39848;SDS011;25518;47.878;15.914;2023-08-24T02:44:33;5.20;;;3.23;;
39848;SDS011;25518;47.878;15.914;2023-08-24T02:47:23;4.90;;;3.38;;
39848;SDS011;25518;47.878;15.914;2023-08-24T02:50:12;5.00;;;3.10;;
39848;SDS011;25518;47.878;15.914;2023-08-24T02:53:02;6.38;;;3.33;;
39848;SDS011;25518;47.878;15.914;2023-08-24T02:55:51;5.60;;;3.38;;
39848;SDS011;25518;47.878;15.914;2023-08-24T02:58:42;6.25;;;3.47;;
39848;SDS011;25518;47.878;15.914;2023-08-24T03:01:32;5.93;;;3.83;;
39848;SDS011;25518;47.878;15.914;2023-08-24T03:18:27;9.23;;;3.50;;
39848;SDS011;25518;47.878;15.914;2023-08-24T03:21:17;5.38;;;3.47;;
39848;SDS011;25518;47.878;15.914;2023-08-24T03:24:06;6.30;;;3.40;;
39848;SDS011;25518;47.878;15.914;2023-08-24T03:26:56;5.03;;;3.60;;
39848;SDS011;25518;47.878;15.914;2023-08-24T03:29:45;4.97;;;3.15;;
39848;SDS011;25518;47.878;15.914;2023-08-24T03:32:35;5.97;;;3.50;;
39848;SDS011;25518;47.878;15.914;2023-08-24T03:35:25;5.90;;;3.65;;
39848;SDS011;25518;47.878;15.914;2023-08-24T03:38:14;5.13;;;3.67;;
39848;SDS011;25518;47.878;15.914;2023-08-24T03:41:04;5.30;;;3.42;;
39848;SDS011;25518;47.878;15.914;2023-08-24T03:43:54;8.50;;;3.70;;
39848;SDS011;25518;47.878;15.914;2023-08-24T03:46:44;7.70;;;3.97;;
39848;SDS011;25518;47.878;15.914;2023-08-24T03:49:34;5.43;;;3.42;;
39848;SDS011;25518;47.878;15.914;2023-08-24T03:52:23;6.60;;;3.88;;
39848;SDS011;25518;47.878;15.914;2023-08-24T03:55:13;9.60;;;3.72;;
39848;SDS011;25518;47.878;15.914;2023-08-24T03:58:03;6.18;;;3.72;;
39848;SDS011;25518;47.878;15.914;2023-08-24T04:00:52;7.28;;;4.40;;
39848;SDS011;25518;47.878;15.914;2023-08-24T04:03:43;5.72;;;3.55;;
39848;SDS011;25518;47.878;15.914;2023-08-24T04:06:32;5.35;;;3.30;;
39848;SDS011;25518;47.878;15.914;2023-08-24T04:09:21;4.22;;;2.92;;
39848;SDS011;25518;47.878;15.914;2023-08-24T04:12:11;5.40;;;3.50;;
39848;SDS011;25518;47.878;15.914;2023-08-24T04:15:00;5.17;;;3.37;;
39848;SDS011;25518;47.878;15.914;2023-08-24T04:17:50;7.18;;;3.90;;
39848;SDS011;25518;47.878;15.914;2023-08-24T04:20:40;6.17;;;4.07;;
39848;SDS011;25518;47.878;15.914;2023-08-24T04:23:29;8.18;;;3.70;;
39848;SDS011;25518;47.878;15.914;2023-08-24T04:26:19;4.65;;;3.55;;
39848;SDS011;25518;47.878;15.914;2023-08-24T04:29:09;9.48;;;4.57;;
39848;SDS011;25518;47.878;15.914;2023-08-24T04:31:58;16.38;;;6.32;;
39848;SDS011;25518;47.878;15.914;2023-08-24T04:34:48;8.75;;;4.70;;
39848;SDS011;25518;47.878;15.914;2023-08-24T04:37:38;7.63;;;3.37;;
39848;SDS011;25518;47.878;15.914;2023-08-24T04:40:27;5.53;;;3.58;;
39848;SDS011;25518;47.878;15.914;2023-08-24T04:43:17;8.68;;;3.88;;
39848;SDS011;25518;47.878;15.914;2023-08-24T04:46:07;6.35;;;3.28;;
39848;SDS011;25518;47.878;15.914;2023-08-24T04:48:57;5.13;;;3.20;;
39848;SDS011;25518;47.878;15.914;2023-08-24T04:51:47;5.88;;;3.50;;
39848;SDS011;25518;47.878;15.914;2023-08-24T04:54:36;5.25;;;3.50;;
39848;SDS011;25518;47.878;15.914;2023-08-24T04:57:26;5.68;;;3.40;;
39848;SDS011;25518;47.878;15.914;2023-08-24T05:00:16;5.50;;;3.75;;
39848;SDS011;25518;47.878;15.914;2023-08-24T05:03:07;9.65;;;3.85;;
39848;SDS011;25518;47.878;15.914;2023-08-24T05:05:57;5.85;;;3.25;;
39848;SDS011;25518;47.878;15.914;2023-08-24T05:08:47;5.65;;;3.25;;
39848;SDS011;25518;47.878;15.914;2023-08-24T05:11:36;6.63;;;3.63;;
39848;SDS011;25518;47.878;15.914;2023-08-24T05:14:26;5.18;;;3.55;;
39848;SDS011;25518;47.878;15.914;2023-08-24T05:17:16;5.18;;;3.53;;
39848;SDS011;25518;47.878;15.914;2023-08-24T05:20:06;5.18;;;3.40;;
39848;SDS011;25518;47.878;15.914;2023-08-24T05:22:57;6.13;;;3.60;;
39848;SDS011;25518;47.878;15.914;2023-08-24T05:25:48;7.15;;;3.60;;
39848;SDS011;25518;47.878;15.914;2023-08-24T05:28:38;5.95;;;3.47;;
39848;SDS011;25518;47.878;15.914;2023-08-24T05:31:29;6.50;;;3.70;;
39848;SDS011;25518;47.878;15.914;2023-08-24T05:34:21;4.60;;;3.17;;
39848;SDS011;25518;47.878;15.914;2023-08-24T05:37:10;5.60;;;3.50;;
39848;SDS011;25518;47.878;15.914;2023-08-24T05:40:00;5.40;;;3.33;;
39848;SDS011;25518;47.878;15.914;2023-08-24T05:42:50;5.22;;;3.53;;
39848;SDS011;25518;47.878;15.914;2023-08-24T05:45:40;6.68;;;3.58;;
39848;SDS011;25518;47.878;15.914;2023-08-24T05:48:32;6.13;;;3.67;;
39848;SDS011;25518;47.878;15.914;2023-08-24T05:51:22;5.80;;;3.70;;
39848;SDS011;25518;47.878;15.914;2023-08-24T05:54:11;4.23;;;3.20;;
39848;SDS011;25518;47.878;15.914;2023-08-24T05:57:02;5.45;;;3.22;;
39848;SDS011;25518;47.878;15.914;2023-08-24T05:59:52;8.50;;;4.20;;
39848;SDS011;25518;47.878;15.914;2023-08-24T06:02:42;4.88;;;3.38;;
39848;SDS011;25518;47.878;15.914;2023-08-24T06:05:31;5.38;;;3.58;;
39848;SDS011;25518;47.878;15.914;2023-08-24T06:08:21;5.82;;;3.67;;
39848;SDS011;25518;47.878;15.914;2023-08-24T06:11:11;4.70;;;3.17;;
39848;SDS011;25518;47.878;15.914;2023-08-24T06:14:01;5.32;;;3.45;;
39848;SDS011;25518;47.878;15.914;2023-08-24T06:16:50;5.27;;;3.43;;
39848;SDS011;25518;47.878;15.914;2023-08-24T06:19:42;6.15;;;3.95;;
39848;SDS011;25518;47.878;15.914;2023-08-24T06:22:32;5.20;;;3.60;;
39848;SDS011;25518;47.878;15.914;2023-08-24T06:25:21;5.50;;;3.70;;
39848;SDS011;25518;47.878;15.914;2023-08-24T06:28:11;6.72;;;3.78;;
39848;SDS011;25518;47.878;15.914;2023-08-24T06:31:01;6.50;;;3.77;;
39848;SDS011;25518;47.878;15.914;2023-08-24T06:33:51;5.57;;;3.90;;
39848;SDS011;25518;47.878;15.914;2023-08-24T06:36:41;5.22;;;3.60;;
39848;SDS011;25518;47.878;15.914;2023-08-24T06:39:31;5.32;;;3.53;;
39848;SDS011;25518;47.878;15.914;2023-08-24T06:42:21;7.63;;;3.65;;
39848;SDS011;25518;47.878;15.914;2023-08-24T06:45:10;5.05;;;3.58;;
39848;SDS011;25518;47.878;15.914;2023-08-24T06:48:00;5.20;;;3.63;;
39848;SDS011;25518;47.878;15.914;2023-08-24T06:50:50;5.65;;;3.45;;
39848;SDS011;25518;47.878;15.914;2023-08-24T06:53:40;7.93;;;3.72;;
39848;SDS011;25518;47.878;15.914;2023-08-24T06:56:31;6.33;;;3.70;;
39848;SDS011;25518;47.878;15.914;2023-08-24T06:59:20;7.05;;;3.75;;
39848;SDS011;25518;47.878;15.914;2023-08-24T07:02:10;6.35;;;3.58;;
39848;SDS011;25518;47.878;15.914;2023-08-24T07:05:00;8.85;;;3.50;;
39848;SDS011;25518;47.878;15.914;2023-08-24T07:07:49;5.80;;;3.67;;
39848;SDS011;25518;47.878;15.914;2023-08-24T07:10:40;6.38;;;3.80;;
39848;SDS011;25518;47.878;15.914;2023-08-24T07:13:32;5.82;;;3.47;;
39848;SDS011;25518;47.878;15.914;2023-08-24T07:16:21;7.22;;;3.55;;
39848;SDS011;25518;47.878;15.914;2023-08-24T07:19:11;5.72;;;3.53;;
39848;SDS011;25518;47.878;15.914;2023-08-24T07:22:01;5.10;;;3.60;;
39848;SDS011;25518;47.878;15.914;2023-08-24T07:24:50;5.90;;;3.50;;
39848;SDS011;25518;47.878;15.914;2023-08-24T07:27:41;5.90;;;3.97;;
39848;SDS011;25518;47.878;15.914;2023-08-24T07:30:31;5.77;;;3.50;;
39848;SDS011;25518;47.878;15.914;2023-08-24T07:33:21;6.35;;;3.83;;
39848;SDS011;25518;47.878;15.914;2023-08-24T07:36:10;4.60;;;3.30;;
39848;SDS011;25518;47.878;15.914;2023-08-24T07:39:00;6.10;;;3.75;;
39848;SDS011;25518;47.878;15.914;2023-08-24T07:41:50;5.10;;;3.80;;
39848;SDS011;25518;47.878;15.914;2023-08-24T07:44:39;6.50;;;4.13;;
39848;SDS011;25518;47.878;15.914;2023-08-24T07:47:29;5.17;;;3.50;;
39848;SDS011;25518;47.878;15.914;2023-08-24T07:50:19;5.78;;;3.95;;
39848;SDS011;25518;47.878;15.914;2023-08-24T07:53:08;5.05;;;3.70;;
39848;SDS011;25518;47.878;15.914;2023-08-24T07:55:58;6.68;;;4.07;;
39848;SDS011;25518;47.878;15.914;2023-08-24T07:58:50;6.32;;;4.38;;
39848;SDS011;25518;47.878;15.914;2023-08-24T08:01:39;7.95;;;4.20;;
39848;SDS011;25518;47.878;15.914;2023-08-24T08:04:29;6.63;;;4.15;;
39848;SDS011;25518;47.878;15.914;2023-08-24T08:07:19;6.00;;;4.40;;
39848;SDS011;25518;47.878;15.914;2023-08-24T08:10:08;5.68;;;4.05;;
39848;SDS011;25518;47.878;15.914;2023-08-24T08:12:59;6.10;;;4.10;;
39848;SDS011;25518;47.878;15.914;2023-08-24T08:15:48;9.05;;;4.15;;
39848;SDS011;25518;47.878;15.914;2023-08-24T08:18:38;7.47;;;4.70;;
39848;SDS011;25518;47.878;15.914;2023-08-24T08:21:28;5.78;;;4.40;;
39848;SDS011;25518;47.878;15.914;2023-08-24T08:24:19;6.90;;;4.10;;
39848;SDS011;25518;47.878;15.914;2023-08-24T08:27:08;5.10;;;3.53;;
39848;SDS011;25518;47.878;15.914;2023-08-24T08:29:59;9.48;;;3.75;;
39848;SDS011;25518;47.878;15.914;2023-08-24T08:32:49;8.90;;;3.88;;
39848;SDS011;25518;47.878;15.914;2023-08-24T08:35:40;6.15;;;4.00;;
39848;SDS011;25518;47.878;15.914;2023-08-24T08:38:30;6.40;;;4.10;;
39848;SDS011;25518;47.878;15.914;2023-08-24T08:41:21;5.13;;;3.50;;
39848;SDS011;25518;47.878;15.914;2023-08-24T08:44:14;5.30;;;3.58;;
39848;SDS011;25518;47.878;15.914;2023-08-24T08:47:04;6.25;;;3.60;;
39848;SDS011;25518;47.878;15.914;2023-08-24T08:49:57;6.00;;;4.18;;
39848;SDS011;25518;47.878;15.914;2023-08-24T08:52:46;5.80;;;3.60;;
39848;SDS011;25518;47.878;15.914;2023-08-24T08:55:36;5.22;;;3.25;;
39848;SDS011;25518;47.878;15.914;2023-08-24T08:58:26;6.82;;;3.20;;
39848;SDS011;25518;47.878;15.914;2023-08-24T09:01:16;5.60;;;3.25;;
39848;SDS011;25518;47.878;15.914;2023-08-24T09:04:06;5.82;;;3.40;;
39848;SDS011;25518;47.878;15.914;2023-08-24T09:06:57;5.63;;;3.40;;
39848;SDS011;25518;47.878;15.914;2023-08-24T09:09:47;5.28;;;3.38;;
39848;SDS011;25518;47.878;15.914;2023-08-24T09:12:37;6.95;;;3.53;;
39848;SDS011;25518;47.878;15.914;2023-08-24T09:15:27;5.47;;;3.20;;
39848;SDS011;25518;47.878;15.914;2023-08-24T09:18:23;5.03;;;3.15;;
39848;SDS011;25518;47.878;15.914;2023-08-24T09:21:25;4.88;;;3.10;;
39848;SDS011;25518;47.878;15.914;2023-08-24T09:24:15;5.53;;;3.33;;
39848;SDS011;25518;47.878;15.914;2023-08-24T09:27:14;6.65;;;3.63;;
39848;SDS011;25518;47.878;15.914;2023-08-24T09:30:06;4.13;;;2.97;;
39848;SDS011;25518;47.878;15.914;2023-08-24T09:33:04;4.82;;;2.90;;
39848;SDS011;25518;47.878;15.914;2023-08-24T09:35:59;6.25;;;2.85;;
39848;SDS011;25518;47.878;15.914;2023-08-24T09:38:52;5.95;;;2.80;;
39848;SDS011;25518;47.878;15.914;2023-08-24T09:41:46;5.95;;;3.45;;
39848;SDS011;25518;47.878;15.914;2023-08-24T09:44:38;5.20;;;2.97;;
39848;SDS011;25518;47.878;15.914;2023-08-24T09:47:35;4.80;;;2.70;;
39848;SDS011;25518;47.878;15.914;2023-08-24T09:50:25;5.65;;;2.85;;
39848;SDS011;25518;47.878;15.914;2023-08-24T09:53:18;5.30;;;2.85;;
39848;SDS011;25518;47.878;15.914;2023-08-24T09:56:10;5.00;;;2.60;;
39848;SDS011;25518;47.878;15.914;2023-08-24T09:59:09;5.15;;;2.90;;
39848;SDS011;25518;47.878;15.914;2023-08-24T10:02:02;5.57;;;2.58;;
39848;SDS011;25518;47.878;15.914;2023-08-24T10:04:55;5.30;;;2.88;;
39848;SDS011;25518;47.878;15.914;2023-08-24T10:07:48;6.05;;;2.85;;
39848;SDS011;25518;47.878;15.914;2023-08-24T10:10:43;6.60;;;2.97;;
39848;SDS011;25518;47.878;15.914;2023-08-24T10:16:25;5.15;;;2.92;;
39848;SDS011;25518;47.878;15.914;2023-08-24T10:19:18;4.57;;;2.60;;
39848;SDS011;25518;47.878;15.914;2023-08-24T10:22:09;5.53;;;2.25;;
39848;SDS011;25518;47.878;15.914;2023-08-24T10:25:01;4.43;;;2.83;;
39848;SDS011;25518;47.878;15.914;2023-08-24T10:27:51;4.65;;;2.38;;
39848;SDS011;25518;47.878;15.914;2023-08-24T10:30:44;4.43;;;2.50;;
39848;SDS011;25518;47.878;15.914;2023-08-24T10:33:35;6.50;;;3.05;;
39848;SDS011;25518;47.878;15.914;2023-08-24T10:36:25;4.05;;;2.38;;
39848;SDS011;25518;47.878;15.914;2023-08-24T10:39:17;4.93;;;2.65;;
39848;SDS011;25518;47.878;15.914;2023-08-24T10:42:15;7.32;;;3.28;;
39848;SDS011;25518;47.878;15.914;2023-08-24T10:45:05;6.28;;;3.75;;
39848;SDS011;25518;47.878;15.914;2023-08-24T10:47:57;5.95;;;3.63;;
39848;SDS011;25518;47.878;15.914;2023-08-24T10:51:17;7.65;;;4.35;;
39848;SDS011;25518;47.878;15.914;2023-08-24T10:54:05;5.03;;;4.05;;
39848;SDS011;25518;47.878;15.914;2023-08-24T10:56:55;7.10;;;3.90;;
39848;SDS011;25518;47.878;15.914;2023-08-24T11:00:17;8.32;;;4.20;;
39848;SDS011;25518;47.878;15.914;2023-08-24T11:03:00;5.57;;;3.85;;
39848;SDS011;25518;47.878;15.914;2023-08-24T11:05:51;6.10;;;3.85;;
39848;SDS011;25518;47.878;15.914;2023-08-24T11:08:45;6.43;;;3.70;;
39848;SDS011;25518;47.878;15.914;2023-08-24T11:11:35;5.88;;;3.60;;
39848;SDS011;25518;47.878;15.914;2023-08-24T11:14:25;8.73;;;3.55;;
39848;SDS011;25518;47.878;15.914;2023-08-24T11:17:19;6.55;;;3.40;;
39848;SDS011;25518;47.878;15.914;2023-08-24T11:20:10;8.73;;;4.00;;
39848;SDS011;25518;47.878;15.914;2023-08-24T11:23:02;6.25;;;3.95;;
39848;SDS011;25518;47.878;15.914;2023-08-24T11:25:53;6.65;;;4.00;;
39848;SDS011;25518;47.878;15.914;2023-08-24T11:28:53;6.22;;;3.70;;
39848;SDS011;25518;47.878;15.914;2023-08-24T11:31:43;5.88;;;3.97;;
39848;SDS011;25518;47.878;15.914;2023-08-24T11:34:33;6.53;;;3.75;;
39848;SDS011;25518;47.878;15.914;2023-08-24T11:37:25;6.15;;;4.10;;
39848;SDS011;25518;47.878;15.914;2023-08-24T11:40:16;6.30;;;3.67;;
39848;SDS011;25518;47.878;15.914;2023-08-24T11:43:08;8.00;;;4.10;;
39848;SDS011;25518;47.878;15.914;2023-08-24T11:45:57;7.45;;;4.38;;
39848;SDS011;25518;47.878;15.914;2023-08-24T11:48:48;7.82;;;4.57;;
39848;SDS011;25518;47.878;15.914;2023-08-24T11:51:38;6.00;;;4.10;;
39848;SDS011;25518;47.878;15.914;2023-08-24T11:54:28;6.28;;;4.25;;
39848;SDS011;25518;47.878;15.914;2023-08-24T11:57:17;5.70;;;3.97;;
39848;SDS011;25518;47.878;15.914;2023-08-24T12:00:08;6.33;;;3.97;;
39848;SDS011;25518;47.878;15.914;2023-08-24T12:02:58;7.97;;;3.63;;
39848;SDS011;25518;47.878;15.914;2023-08-24T12:05:48;8.77;;;4.10;;
39848;SDS011;25518;47.878;15.914;2023-08-24T12:08:39;6.20;;;4.20;;
39848;SDS011;25518;47.878;15.914;2023-08-24T12:11:34;6.67;;;4.37;;
39848;SDS011;25518;47.878;15.914;2023-08-24T12:14:26;8.20;;;4.05;;
39848;SDS011;25518;47.878;15.914;2023-08-24T12:17:16;5.60;;;4.05;;
39848;SDS011;25518;47.878;15.914;2023-08-24T12:20:07;9.07;;;4.43;;
39848;SDS011;25518;47.878;15.914;2023-08-24T12:23:06;6.40;;;3.90;;
39848;SDS011;25518;47.878;15.914;2023-08-24T12:25:57;6.43;;;3.72;;
39848;SDS011;25518;47.878;15.914;2023-08-24T12:28:50;5.97;;;4.03;;
39848;SDS011;25518;47.878;15.914;2023-08-24T12:31:42;6.53;;;4.05;;
39848;SDS011;25518;47.878;15.914;2023-08-24T12:34:33;6.85;;;4.20;;
39848;SDS011;25518;47.878;15.914;2023-08-24T12:37:22;6.32;;;4.45;;
39848;SDS011;25518;47.878;15.914;2023-08-24T12:40:12;5.80;;;3.72;;
39848;SDS011;25518;47.878;15.914;2023-08-24T12:43:03;5.22;;;3.80;;
39848;SDS011;25518;47.878;15.914;2023-08-24T12:45:53;6.80;;;3.78;;
39848;SDS011;25518;47.878;15.914;2023-08-24T12:48:42;9.02;;;4.05;;
39848;SDS011;25518;47.878;15.914;2023-08-24T12:51:32;7.43;;;3.57;;
39848;SDS011;25518;47.878;15.914;2023-08-24T12:54:21;6.53;;;3.92;;
39848;SDS011;25518;47.878;15.914;2023-08-24T12:57:13;5.40;;;3.73;;
39848;SDS011;25518;47.878;15.914;2023-08-24T13:00:03;6.25;;;3.83;;
39848;SDS011;25518;47.878;15.914;2023-08-24T13:02:55;8.52;;;3.97;;
39848;SDS011;25518;47.878;15.914;2023-08-24T13:05:45;5.88;;;3.85;;
39848;SDS011;25518;47.878;15.914;2023-08-24T13:08:36;8.30;;;3.97;;
39848;SDS011;25518;47.878;15.914;2023-08-24T13:11:26;6.47;;;3.78;;
39848;SDS011;25518;47.878;15.914;2023-08-24T13:14:15;8.00;;;3.97;;
39848;SDS011;25518;47.878;15.914;2023-08-24T13:17:05;4.72;;;3.40;;
39848;SDS011;25518;47.878;15.914;2023-08-24T13:19:54;6.47;;;3.87;;
39848;SDS011;25518;47.878;15.914;2023-08-24T13:22:44;9.13;;;4.13;;
39848;SDS011;25518;47.878;15.914;2023-08-24T13:25:34;7.00;;;4.03;;
39848;SDS011;25518;47.878;15.914;2023-08-24T13:28:24;7.22;;;4.15;;
39848;SDS011;25518;47.878;15.914;2023-08-24T13:31:13;6.03;;;3.73;;
39848;SDS011;25518;47.878;15.914;2023-08-24T13:34:03;7.97;;;4.40;;
39848;SDS011;25518;47.878;15.914;2023-08-24T13:36:56;7.23;;;3.77;;
39848;SDS011;25518;47.878;15.914;2023-08-24T13:39:47;6.10;;;4.30;;
39848;SDS011;25518;47.878;15.914;2023-08-24T13:42:36;7.60;;;4.35;;
39848;SDS011;25518;47.878;15.914;2023-08-24T13:45:26;6.68;;;4.18;;
39848;SDS011;25518;47.878;15.914;2023-08-24T13:48:19;4.82;;;3.40;;
39848;SDS011;25518;47.878;15.914;2023-08-24T13:51:10;7.60;;;4.13;;
39848;SDS011;25518;47.878;15.914;2023-08-24T13:54:00;6.38;;;3.88;;
39848;SDS011;25518;47.878;15.914;2023-08-24T13:56:50;7.20;;;3.90;;
39848;SDS011;25518;47.878;15.914;2023-08-24T13:59:40;6.35;;;3.90;;
39848;SDS011;25518;47.878;15.914;2023-08-24T14:02:30;5.50;;;3.95;;
39848;SDS011;25518;47.878;15.914;2023-08-24T14:05:20;5.65;;;3.78;;
39848;SDS011;25518;47.878;15.914;2023-08-24T14:08:09;5.35;;;3.90;;
39848;SDS011;25518;47.878;15.914;2023-08-24T14:10:59;7.07;;;4.15;;
39848;SDS011;25518;47.878;15.914;2023-08-24T14:13:49;7.22;;;4.03;;
39848;SDS011;25518;47.878;15.914;2023-08-24T14:16:39;7.30;;;3.85;;
39848;SDS011;25518;47.878;15.914;2023-08-24T14:19:28;7.07;;;3.65;;
39848;SDS011;25518;47.878;15.914;2023-08-24T14:22:18;7.88;;;4.95;;
39848;SDS011;25518;47.878;15.914;2023-08-24T14:25:08;8.23;;;4.20;;
39848;SDS011;25518;47.878;15.914;2023-08-24T14:27:58;7.72;;;4.55;;
39848;SDS011;25518;47.878;15.914;2023-08-24T14:30:48;6.63;;;4.20;;
39848;SDS011;25518;47.878;15.914;2023-08-24T14:33:39;7.00;;;4.50;;
39848;SDS011;25518;47.878;15.914;2023-08-24T14:36:29;6.45;;;4.30;;
39848;SDS011;25518;47.878;15.914;2023-08-24T14:39:20;7.10;;;4.60;;
39848;SDS011;25518;47.878;15.914;2023-08-24T14:42:09;6.80;;;4.28;;
39848;SDS011;25518;47.878;15.914;2023-08-24T14:44:59;6.90;;;4.45;;
39848;SDS011;25518;47.878;15.914;2023-08-24T14:47:48;6.45;;;4.38;;
39848;SDS011;25518;47.878;15.914;2023-08-24T14:50:38;7.90;;;4.20;;
39848;SDS011;25518;47.878;15.914;2023-08-24T14:53:28;5.75;;;4.10;;
39848;SDS011;25518;47.878;15.914;2023-08-24T14:56:18;6.75;;;4.40;;
39848;SDS011;25518;47.878;15.914;2023-08-24T14:59:08;7.63;;;4.25;;
39848;SDS011;25518;47.878;15.914;2023-08-24T15:01:58;6.45;;;4.80;;
39848;SDS011;25518;47.878;15.914;2023-08-24T15:04:49;7.88;;;4.65;;
39848;SDS011;25518;47.878;15.914;2023-08-24T15:07:39;7.18;;;4.32;;
39848;SDS011;25518;47.878;15.914;2023-08-24T15:10:28;7.72;;;4.32;;
39848;SDS011;25518;47.878;15.914;2023-08-24T15:13:18;5.43;;;3.97;;
39848;SDS011;25518;47.878;15.914;2023-08-24T15:16:08;5.90;;;4.38;;
39848;SDS011;25518;47.878;15.914;2023-08-24T15:18:58;5.95;;;4.53;;
39848;SDS011;25518;47.878;15.914;2023-08-24T15:21:48;9.95;;;4.47;;
39848;SDS011;25518;47.878;15.914;2023-08-24T15:24:38;5.97;;;4.50;;
39848;SDS011;25518;47.878;15.914;2023-08-24T15:27:28;7.13;;;4.30;;
39848;SDS011;25518;47.878;15.914;2023-08-24T15:30:18;6.30;;;4.55;;
39848;SDS011;25518;47.878;15.914;2023-08-24T15:33:08;6.45;;;4.40;;
39848;SDS011;25518;47.878;15.914;2023-08-24T15:35:58;6.85;;;4.72;;
39848;SDS011;25518;47.878;15.914;2023-08-24T15:38:48;7.95;;;4.43;;
39848;SDS011;25518;47.878;15.914;2023-08-24T15:41:38;6.78;;;4.50;;
39848;SDS011;25518;47.878;15.914;2023-08-24T15:44:27;7.07;;;4.53;;
39848;SDS011;25518;47.878;15.914;2023-08-24T15:47:17;8.77;;;4.28;;
39848;SDS011;25518;47.878;15.914;2023-08-24T15:50:07;7.00;;;4.40;;
39848;SDS011;25518;47.878;15.914;2023-08-24T15:52:56;6.33;;;4.20;;
39848;SDS011;25518;47.878;15.914;2023-08-24T15:55:48;6.47;;;4.55;;
39848;SDS011;25518;47.878;15.914;2023-08-24T15:58:39;6.63;;;4.30;;
39848;SDS011;25518;47.878;15.914;2023-08-24T16:01:29;5.30;;;3.90;;
39848;SDS011;25518;47.878;15.914;2023-08-24T16:04:19;6.20;;;4.10;;
39848;SDS011;25518;47.878;15.914;2023-08-24T16:07:08;6.93;;;4.50;;
39848;SDS011;25518;47.878;15.914;2023-08-24T16:09:58;6.78;;;4.35;;
39848;SDS011;25518;47.878;15.914;2023-08-24T16:12:48;9.23;;;4.40;;
39848;SDS011;25518;47.878;15.914;2023-08-24T16:15:37;6.97;;;4.43;;
39848;SDS011;25518;47.878;15.914;2023-08-24T16:18:27;7.17;;;4.37;;
39848;SDS011;25518;47.878;15.914;2023-08-24T16:21:17;7.05;;;4.25;;
39848;SDS011;25518;47.878;15.914;2023-08-24T16:24:06;6.78;;;3.88;;
39848;SDS011;25518;47.878;15.914;2023-08-24T16:26:58;6.10;;;4.05;;
39848;SDS011;25518;47.878;15.914;2023-08-24T16:29:48;6.82;;;4.25;;
39848;SDS011;25518;47.878;15.914;2023-08-24T16:32:38;6.53;;;3.83;;
39848;SDS011;25518;47.878;15.914;2023-08-24T16:35:27;8.68;;;4.22;;
39848;SDS011;25518;47.878;15.914;2023-08-24T16:38:16;6.15;;;4.28;;
39848;SDS011;25518;47.878;15.914;2023-08-24T16:41:06;5.75;;;4.22;;
39848;SDS011;25518;47.878;15.914;2023-08-24T16:43:56;5.95;;;4.20;;
39848;SDS011;25518;47.878;15.914;2023-08-24T16:46:46;7.57;;;4.35;;
39848;SDS011;25518;47.878;15.914;2023-08-24T16:49:36;6.50;;;4.47;;
39848;SDS011;25518;47.878;15.914;2023-08-24T16:52:26;5.63;;;4.70;;
39848;SDS011;25518;47.878;15.914;2023-08-24T16:55:16;8.15;;;4.40;;
39848;SDS011;25518;47.878;15.914;2023-08-24T16:58:06;5.70;;;4.10;;
39848;SDS011;25518;47.878;15.914;2023-08-24T17:00:55;5.40;;;4.07;;
39848;SDS011;25518;47.878;15.914;2023-08-24T17:03:52;7.15;;;4.18;;
39848;SDS011;25518;47.878;15.914;2023-08-24T17:06:42;8.02;;;4.40;;
39848;SDS011;25518;47.878;15.914;2023-08-24T17:09:32;8.32;;;4.60;;